Gheens, LA (70355)

1:42 PM CST on February 01, 2015 (GMT -0600)
Sugarland Subdivision | Change Station
CLOSE
Current Station
Personal Weather Station
Location: Raceland, LA
Elevation: 10 ft
Nearby Weather Stations

Elev 10 ft 29.70 °N, 90.57 °W | Updated 4 seconds ago

Overcast
Overcast
72.8 °F
Feels Like 75 °F
N
12.0
Wind Variable Wind from WSW
Gusts 19.0 mph

Today
High -- | Low -- °F
--% Chance of Precip.
Yesterday
High -- | Low -- °F
Precip. -- in
6:51 AM 5:39 PM
Waxing Gibbous, 96% visible
Pressure 29.95 in
Visibility 7.0 miles
Clouds Mostly Cloudy 2100 ft
Heat Index 75 °F
Dew Point 62 °F
Humidity 70%
Rainfall 0.07 in
Snow Depth Not available.
UV 4 out of 12
Pollen 8.60 out of 12
Air Quality Not available.
Flu Activity Not available.
METAR KHUM 011850Z 21010KT 7SM BKN021 23/18 A2995 RMK RY12/30 CLSD ATIS K ILS RY18 DV

More Conditions Fewer Conditions

Pressure 29.95 in
Visibility 7.0 miles
Clouds Mostly Cloudy 2100 ft
Heat Index 75 °F
Dew Point 62 °F
Humidity 70%
Rainfall 0.07 in
Snow Depth Not available.
UV 4 out of 12
Pollen 8.60 out of 12
Air Quality Not available.
Flu Activity Not available.
METAR KHUM 011850Z 21010KT 7SM BKN021 23/18 A2995 RMK RY12/30 CLSD ATIS K ILS RY18 DV

More Conditions Fewer Conditions

10-Day Weather Forecast

Almanac

Astronomy

Feb. 01, 2015 Rise Set
Actual Time
Civil Twilight
Nautical Twilight
Astronomical Twilight
Moon
Length of Visible Light
Length of Day
Tomorrow will be .
, % of the Moon is Illuminated

Today's Extremes

State Highs State Lows

Community

WunderPhotos

Upload Photos

1,792,471 photos uploaded!

WunderBlogs® & News

Nearby

Air Quality

  Air Quality AQ Index Pollutant
Not available.

Snow Depth

Station Depth Elevation

Earthquake Activity

City Distance Mag. Time & Date
Minimum magnitude displayed is 2.5.

Coastal Water Temperatures

Place Temperature

Nearby Weather Stations